Time;durP1;ratioP1;P1;durP2;ratioP2;P2;SDS_P1;SDS_P2;PMS_P1;PMS_P2;Temp;Humidity;BMP_temperature;BMP_pressure;BME280_temperature;BME280_humidity;BME280_pressure;Samples;Min_cycle;Max_cycle;Signal;HPM_P1;HPM_P2
2023/07/01 00:00:39;;;;;;;5.40;3.47;;;;;;;21.64;52.24;99029.38;7791145;32;37842;-77
2023/07/01 00:04:56;;;;;;;4.03;3.03;;;;;;;21.78;51.31;99028.09;7791288;32;37115;-76
2023/07/01 00:09:12;;;;;;;5.97;2.72;;;;;;;21.56;51.50;99022.91;7791259;32;39177;-76
2023/07/01 00:13:29;;;;;;;6.25;2.90;;;;;;;21.70;50.59;99011.28;7790467;32;40579;-76
2023/07/01 00:17:45;;;;;;;4.90;3.00;;;;;;;21.38;51.79;99024.47;7791587;32;37950;-77
2023/07/01 00:22:02;;;;;;;8.15;4.00;;;;;;;21.30;52.13;99025.47;7790948;32;37125;-77
2023/07/01 00:26:18;;;;;;;4.07;2.62;;;;;;;21.29;52.30;99021.88;7790858;32;39185;-77
2023/07/01 00:30:34;;;;;;;5.57;3.30;;;;;;;21.33;52.33;99014.44;7790648;32;40064;-77
2023/07/01 00:34:51;;;;;;;7.00;3.25;;;;;;;21.22;52.94;99016.19;7790591;32;37589;-77
2023/07/01 00:39:07;;;;;;;6.40;3.42;;;;;;;21.24;52.86;99016.63;7790490;32;37519;-77
2023/07/01 00:43:23;;;;;;;4.60;3.00;;;;;;;21.24;53.10;99013.84;7817388;32;37856;-76
2023/07/01 00:47:40;;;;;;;8.90;3.33;;;;;;;21.13;52.98;99005.31;7817572;32;39992;-76
2023/07/01 00:51:57;;;;;;;4.50;2.80;;;;;;;21.09;52.71;99004.41;7817500;32;37941;-76
2023/07/01 00:56:13;;;;;;;4.43;2.92;;;;;;;21.31;52.01;98997.38;7817536;32;37792;-76
2023/07/01 01:00:30;;;;;;;6.60;3.12;;;;;;;21.03;52.16;98999.53;7817203;32;39273;-76
2023/07/01 01:05:10;;;;;;;6.20;3.33;;;;;;;20.98;51.69;98998.62;7791387;32;39888;-76
2023/07/01 01:09:44;;;;;;;5.45;2.80;;;;;;;21.04;51.25;98999.19;7788736;32;37918;-74
2023/07/01 01:14:03;;;;;;;9.25;3.00;;;;;;;20.96;51.88;98989.88;7788710;32;36963;-76
2023/07/01 01:18:23;;;;;;;4.47;2.90;;;;;;;20.87;52.20;98992.06;7789593;32;39265;-76
2023/07/01 01:22:44;;;;;;;4.87;2.97;;;;;;;20.87;52.48;98994.84;7788385;32;39663;-76
2023/07/01 01:27:16;;;;;;;6.95;3.10;;;;;;;20.97;52.84;98987.91;7790789;32;38669;-76
2023/07/01 01:31:33;;;;;;;5.20;3.10;;;;;;;20.92;53.10;98969.63;7792176;32;37052;-76
2023/07/01 01:35:50;;;;;;;5.55;3.37;;;;;;;20.79;53.36;98968.12;7793461;32;39245;-77
2023/07/01 01:40:34;;;;;;;6.37;3.67;;;;;;;20.70;53.82;98970.28;7792085;32;40939;-76
2023/07/01 01:44:52;;;;;;;6.65;3.80;;;;;;;20.82;53.87;98976.50;7777740;32;37702;-76
2023/07/01 01:49:11;;;;;;;10.00;3.75;;;;;;;20.70;54.09;98973.84;7792119;32;37058;-77
2023/07/01 01:53:27;;;;;;;5.85;3.50;;;;;;;20.56;54.62;98977.06;7814995;32;38548;-76
2023/07/01 01:57:44;;;;;;;5.70;3.78;;;;;;;20.50;54.83;98972.94;7819285;32;40180;-76
2023/07/01 02:02:01;;;;;;;5.07;3.67;;;;;;;20.50;54.91;98981.25;7819163;32;37866;-76
2023/07/01 02:06:18;;;;;;;5.90;4.10;;;;;;;20.44;55.25;98982.69;7820360;32;37738;-76
2023/07/01 02:10:34;;;;;;;7.65;3.72;;;;;;;20.52;55.21;98980.91;7820312;32;39236;-76
2023/07/01 02:14:50;;;;;;;9.07;3.58;;;;;;;20.46;55.95;98980.37;7814608;32;39987;-76
2023/07/01 02:19:06;;;;;;;6.18;3.60;;;;;;;20.56;55.95;98974.28;7792763;32;37980;-76
2023/07/01 02:23:23;;;;;;;4.75;3.65;;;;;;;20.42;56.49;98977.50;7798346;32;36836;-77
2023/07/01 02:27:39;;;;;;;5.20;3.62;;;;;;;20.44;56.57;98966.09;7820068;32;39337;-76
2023/07/01 02:31:56;;;;;;;6.45;3.90;;;;;;;20.46;56.55;98969.28;7820198;32;40003;-76
2023/07/01 02:36:12;;;;;;;8.40;3.90;;;;;;;20.52;56.42;98967.06;7819479;32;38712;-76
2023/07/01 02:40:28;;;;;;;6.20;4.00;;;;;;;20.38;57.00;98967.50;7811499;32;36926;-76
2023/07/01 02:44:45;;;;;;;6.62;4.20;;;;;;;20.32;57.28;98968.94;7792502;32;39384;-75
2023/07/01 02:49:01;;;;;;;6.55;4.20;;;;;;;20.56;56.56;98962.41;7792639;32;39973;-76
2023/07/01 02:53:19;;;;;;;4.37;3.58;;;;;;;20.29;57.11;98964.13;7792370;32;38110;-76
2023/07/01 02:57:35;;;;;;;6.45;3.62;;;;;;;20.48;56.43;98960.62;7792462;32;36645;-76
2023/07/01 03:01:51;;;;;;;7.70;4.03;;;;;;;20.22;57.08;98960.00;7792996;32;39334;-77
2023/07/01 03:06:09;;;;;;;7.43;3.65;;;;;;;20.15;57.07;98959.81;7792204;32;40149;-75
2023/07/01 03:10:26;;;;;;;6.78;3.80;;;;;;;20.23;56.98;98972.69;7792188;32;39518;-76
2023/07/01 03:14:43;;;;;;;6.62;3.92;;;;;;;20.16;57.11;98980.00;7792215;32;37730;-76
2023/07/01 03:18:59;;;;;;;6.55;4.40;;;;;;;20.16;56.99;98972.53;7792218;32;39977;-76
2023/07/01 03:23:15;;;;;;;5.55;3.78;;;;;;;20.17;57.13;98965.81;7790908;32;40857;-75
2023/07/01 03:27:32;;;;;;;6.53;3.92;;;;;;;20.08;57.75;98967.94;7798384;32;38806;-76
2023/07/01 03:31:48;;;;;;;9.30;4.03;;;;;;;20.03;58.09;98965.44;7791739;32;37641;-76
2023/07/01 03:36:06;;;;;;;8.02;4.72;;;;;;;20.11;57.84;98960.88;7791708;32;39246;-76
2023/07/01 03:40:22;;;;;;;7.87;4.55;;;;;;;20.23;57.60;98961.62;7790651;32;39904;-76
2023/07/01 03:44:38;;;;;;;5.45;3.75;;;;;;;20.26;57.91;98969.22;7791677;32;38037;-76
2023/07/01 03:48:55;;;;;;;8.98;4.28;;;;;;;20.29;57.31;98958.59;7790493;32;36753;-76
2023/07/01 03:53:12;;;;;;;6.22;4.10;;;;;;;20.31;57.51;98961.78;7803518;32;40083;-76
2023/07/01 03:57:28;;;;;;;6.57;4.10;;;;;;;20.18;58.59;98958.28;7818731;32;40822;-76
2023/07/01 04:01:44;;;;;;;6.30;4.50;;;;;;;20.11;59.32;98963.66;7818509;32;37886;-76
2023/07/01 04:06:00;;;;;;;5.95;3.47;;;;;;;20.32;58.71;98968.94;7818245;32;38175;-76
2023/07/01 04:10:17;;;;;;;7.68;4.70;;;;;;;20.29;58.96;98953.06;7818208;32;39179;-77
2023/07/01 04:14:33;;;;;;;6.50;4.28;;;;;;;20.24;59.53;98962.41;7806755;32;40535;-75
2023/07/01 04:18:49;;;;;;;6.57;3.97;;;;;;;20.30;59.73;98968.47;7790942;32;38731;-75
2023/07/01 04:23:06;;;;;;;6.95;4.18;;;;;;;20.57;58.98;98959.28;7790940;32;37708;-75
2023/07/01 04:27:22;;;;;;;7.37;4.40;;;;;;;20.73;58.44;98952.94;7790827;32;39297;-75
2023/07/01 04:31:39;;;;;;;9.65;4.37;;;;;;;20.59;59.13;98965.28;7790737;32;40008;-75
2023/07/01 04:35:55;;;;;;;8.35;4.53;;;;;;;20.68;58.91;98964.28;7797615;32;37780;-76
2023/07/01 04:40:12;;;;;;;6.72;4.22;;;;;;;20.72;58.98;98965.19;7817851;32;37047;-76
2023/07/01 04:44:28;;;;;;;8.88;4.35;;;;;;;20.81;58.14;98957.47;7809064;32;40195;-75
2023/07/01 04:48:45;;;;;;;9.10;4.75;;;;;;;20.71;58.69;98958.03;7790340;32;39907;-76
2023/07/01 04:53:01;;;;;;;8.18;4.65;;;;;;;20.99;57.92;98953.16;7790235;32;37846;-76
2023/07/01 04:57:18;;;;;;;7.05;4.35;;;;;;;21.06;57.93;98963.59;7790197;32;37811;-75
2023/07/01 05:01:34;;;;;;;9.10;4.12;;;;;;;21.31;57.57;98963.31;7801705;32;39329;-75
2023/07/01 05:05:51;;;;;;;7.47;4.28;;;;;;;21.17;57.85;98969.38;7817444;32;40854;-75
2023/07/01 05:10:08;;;;;;;8.10;4.37;;;;;;;21.38;57.30;98961.47;7821101;32;38396;-76
2023/07/01 05:14:24;;;;;;;12.27;3.90;;;;;;;21.25;58.04;98954.50;7821017;32;36929;-75
2023/07/01 05:18:40;;;;;;;7.45;4.20;;;;;;;21.55;57.29;98962.25;7820991;32;39947;-74
2023/07/01 05:22:56;;;;;;;6.40;4.03;;;;;;;21.75;55.63;98951.97;7820917;32;39749;-66
2023/07/01 05:27:13;;;;;;;13.02;4.12;;;;;;;21.76;54.63;98957.13;7804696;32;37463;-67
2023/07/01 05:31:29;;;;;;;6.50;3.90;;;;;;;21.84;55.42;98957.28;7793389;32;36960;-66
2023/07/01 05:35:46;;;;;;;14.48;4.45;;;;;;;21.88;54.83;98958.13;7793327;32;40058;-67
2023/07/01 05:40:02;;;;;;;6.12;4.20;;;;;;;22.15;55.11;98967.34;7793184;32;39901;-66
2023/07/01 05:44:18;;;;;;;12.65;4.53;;;;;;;22.23;54.85;98968.25;7793256;32;38008;-69
2023/07/01 05:48:35;;;;;;;8.00;4.00;;;;;;;22.28;54.31;98976.31;7796362;32;36770;-67
2023/07/01 05:52:51;;;;;;;6.80;4.00;;;;;;;22.26;53.23;98967.53;7820279;32;38880;-67
2023/07/01 05:57:07;;;;;;;7.22;4.07;;;;;;;22.38;51.79;98967.38;7820392;32;40149;-67
2023/07/01 06:01:24;;;;;;;7.35;3.83;;;;;;;22.76;51.98;98962.81;7820202;32;37977;-67
2023/07/01 06:05:40;;;;;;;5.10;3.35;;;;;;;23.07;51.48;98955.34;7820384;32;36903;-66
2023/07/01 06:09:56;;;;;;;5.97;3.55;;;;;;;23.22;50.82;98956.34;7820439;32;39145;-77
2023/07/01 06:14:12;;;;;;;5.97;3.83;;;;;;;23.27;51.23;98952.41;7812289;32;40813;-77
2023/07/01 06:18:29;;;;;;;7.47;3.72;;;;;;;23.49;51.76;98951.50;7792860;32;38540;-77
2023/07/01 06:22:45;;;;;;;5.43;3.75;;;;;;;22.92;50.43;98950.72;7792883;32;37781;-77
2023/07/01 06:27:02;;;;;;;10.95;4.18;;;;;;;23.46;50.44;98949.47;7792891;32;40891;-77
2023/07/01 06:31:18;;;;;;;5.53;3.70;;;;;;;23.62;49.56;98952.84;7792819;32;40094;-77
2023/07/01 06:35:35;;;;;;;10.00;3.75;;;;;;;23.48;49.73;98952.69;7792656;32;37610;-68
2023/07/01 06:39:51;;;;;;;6.62;3.53;;;;;;;23.53;49.84;98952.34;7814041;32;36954;-72
2023/07/01 06:44:08;;;;;;;5.75;3.62;;;;;;;24.37;47.83;98938.09;7809469;32;39389;-79
2023/07/01 06:48:24;;;;;;;10.50;4.45;;;;;;;24.88;45.67;98936.47;7819919;32;40821;-78
2023/07/01 06:52:40;;;;;;;7.65;3.70;;;;;;;25.24;45.96;98942.25;7819849;32;38118;-69
2023/07/01 06:56:57;;;;;;;7.78;3.55;;;;;;;25.54;44.97;98942.00;7802640;32;36953;-68
2023/07/01 07:01:13;;;;;;;7.22;3.65;;;;;;;26.09;43.74;98940.16;7792302;32;39700;-69
2023/07/01 07:05:29;;;;;;;5.55;3.28;;;;;;;26.27;42.09;98929.81;7792659;32;40027;-68
2023/07/01 07:09:46;;;;;;;6.07;3.40;;;;;;;26.16;42.94;98924.19;7792315;32;37855;-68
2023/07/01 07:14:02;;;;;;;11.43;3.60;;;;;;;26.63;41.70;98920.59;7792299;32;36948;-69
2023/07/01 07:18:18;;;;;;;7.32;3.45;;;;;;;26.93;40.89;98929.34;7792476;32;39232;-69
2023/07/01 07:22:35;;;;;;;5.87;3.10;;;;;;;27.14;40.61;98913.69;7813917;32;40081;-69
2023/07/01 07:27:00;;;;;;;6.28;3.67;;;;;;;27.51;40.86;98909.56;7819398;32;37562;-69
2023/07/01 07:31:16;;;;;;;8.10;3.70;;;;;;;27.65;39.85;98912.28;7819502;32;37814;-69
2023/07/01 07:35:33;;;;;;;5.22;3.50;;;;;;;27.81;39.67;98899.78;7819464;32;39327;-69
2023/07/01 07:39:49;;;;;;;8.70;4.00;;;;;;;27.98;39.67;98904.50;7819152;32;39629;-69
2023/07/01 07:44:06;;;;;;;7.72;3.72;;;;;;;28.08;38.94;98891.62;7801184;32;37478;-69
2023/07/01 07:48:22;;;;;;;5.78;3.60;;;;;;;27.81;39.74;98905.41;7803419;32;37866;-68
2023/07/01 07:52:39;;;;;;;7.50;3.65;;;;;;;27.06;41.36;98900.94;7795584;32;39448;-68
2023/07/01 07:56:58;;;;;;;6.32;3.58;;;;;;;26.67;43.69;98907.44;7815672;32;40593;-69
2023/07/01 08:01:15;;;;;;;8.55;3.95;;;;;;;26.82;43.57;98906.22;7812907;32;174199;-69
2023/07/01 08:05:32;;;;;;;6.85;4.05;;;;;;;26.58;43.29;98899.44;7806511;32;37126;-69
2023/07/01 08:09:48;;;;;;;6.40;3.90;;;;;;;26.46;43.10;98903.44;7802863;32;39251;-77
2023/07/01 08:14:04;;;;;;;6.85;3.95;;;;;;;27.13;41.85;98892.50;7808540;32;39999;-77
2023/07/01 08:18:21;;;;;;;8.60;4.00;;;;;;;27.59;40.73;98891.53;7817157;32;37577;-76
2023/07/01 08:22:37;;;;;;;8.60;3.87;;;;;;;27.61;40.15;98883.50;7812877;32;37607;-76
2023/07/01 08:26:53;;;;;;;8.80;3.95;;;;;;;27.96;39.23;98884.50;7791389;32;40080;-76
2023/07/01 08:31:10;;;;;;;7.37;4.00;;;;;;;28.44;39.83;98889.31;7806531;32;39962;-76
2023/07/01 08:35:28;;;;;;;7.07;3.85;;;;;;;28.76;38.36;98879.78;7818712;32;37964;-76
2023/07/01 08:39:44;;;;;;;7.60;4.03;;;;;;;29.01;37.47;98879.53;7818440;32;37390;-76
2023/07/01 08:44:01;;;;;;;7.50;4.03;;;;;;;29.30;37.74;98881.19;7801645;32;40482;-76
2023/07/01 08:48:20;;;;;;;8.38;3.80;;;;;;;29.59;39.68;98875.97;7793872;32;40582;-77
2023/07/01 08:52:41;;;;;;;5.53;3.42;;;;;;;29.73;36.59;98877.78;7816188;32;38703;-78
2023/07/01 08:56:58;;;;;;;5.57;3.75;;;;;;;30.30;36.53;98864.84;7820115;32;37055;-76
2023/07/01 09:01:15;;;;;;;10.85;3.60;;;;;;;30.49;36.22;98864.16;7819956;32;40031;-76
2023/07/01 09:05:32;;;;;;;5.85;3.58;;;;;;;30.68;35.21;98871.03;7820966;32;40318;-76
2023/07/01 09:09:48;;;;;;;5.72;3.47;;;;;;;30.64;35.08;98863.88;7794173;32;37859;-77
2023/07/01 09:14:05;;;;;;;6.15;3.35;;;;;;;30.98;35.43;98858.00;7793758;32;37962;-77
2023/07/01 09:18:25;;;;;;;10.00;3.95;;;;;;;31.08;34.78;98867.47;7818193;32;39452;-76
2023/07/01 09:22:43;;;;;;;4.95;3.58;;;;;;;31.06;35.12;98858.63;7820808;32;41555;-77
2023/07/01 09:27:00;;;;;;;6.50;3.80;;;;;;;31.35;35.13;98856.00;7808086;32;37939;-78
2023/07/01 09:31:17;;;;;;;10.57;3.60;;;;;;;31.63;33.60;98856.59;7793244;32;37070;-77
2023/07/01 09:35:44;;;;;;;7.12;4.15;;;;;;;31.62;32.83;98849.41;7802334;32;39277;-77
2023/07/01 09:40:25;;;;;;;6.07;3.40;;;;;;;31.89;33.15;98842.72;7803082;32;39777;-77
2023/07/01 09:44:43;;;;;;;4.50;3.33;;;;;;;32.17;33.53;98839.22;7819254;32;37879;-76
2023/07/01 09:49:00;;;;;;;6.57;3.75;;;;;;;32.23;33.91;98841.50;7805683;32;38030;-76
2023/07/01 09:53:21;;;;;;;5.55;3.45;;;;;;;32.20;32.73;98840.34;7817457;32;39393;-76
2023/07/01 09:57:38;;;;;;;11.07;3.65;;;;;;;32.54;33.08;98841.87;7804519;32;40044;-76
2023/07/01 10:01:55;;;;;;;6.43;3.50;;;;;;;32.50;31.49;98833.53;7791267;32;37919;-77
2023/07/01 10:06:13;;;;;;;4.78;3.53;;;;;;;32.78;32.62;98817.06;7795513;32;37263;-77
2023/07/01 10:10:30;;;;;;;6.95;3.92;;;;;;;32.87;32.41;98811.53;7809414;32;39400;-77
2023/07/01 10:14:50;;;;;;;7.07;3.70;;;;;;;32.98;30.17;98801.97;7799352;32;39931;-76
2023/07/01 10:19:29;;;;;;;6.00;3.42;;;;;;;33.17;29.96;98801.03;7806744;32;37593;-82
2023/07/01 10:23:46;;;;;;;10.25;3.55;;;;;;;32.88;28.84;98801.84;7802132;32;37166;-78
2023/07/01 10:28:12;;;;;;;6.32;3.47;;;;;;;32.70;29.93;98807.22;7791245;32;39444;-77
2023/07/01 10:32:29;;;;;;;7.07;3.30;;;;;;;32.76;30.23;98799.78;7796170;32;40677;-80
2023/07/01 10:37:14;;;;;;;4.43;3.10;;;;;;;32.38;29.99;98794.78;7819662;32;37530;-71
2023/07/01 10:41:51;;;;;;;12.93;3.70;;;;;;;31.93;30.98;98789.91;7819378;32;37144;-72
2023/07/01 10:46:21;;;;;;;5.28;3.40;;;;;;;31.64;30.52;98796.25;7793721;32;39094;-80
2023/07/01 10:51:05;;;;;;;5.22;3.37;;;;;;;31.58;32.36;98797.97;7800865;32;40106;-78
2023/07/01 10:55:36;;;;;;;6.60;3.65;;;;;;;31.81;31.10;98800.62;7792172;32;37548;-78
2023/07/01 11:00:24;;;;;;;5.47;3.28;;;;;;;31.98;31.81;98797.81;7791889;32;37609;-77
2023/07/01 11:04:56;;;;;;;5.18;3.25;;;;;;;32.08;30.92;98796.78;7799344;32;39326;-77
2023/07/01 11:09:14;;;;;;;5.22;3.33;;;;;;;31.90;31.49;98785.91;7814617;32;40863;-79
2023/07/01 11:13:30;;;;;;;6.75;3.50;;;;;;;31.92;32.56;98785.50;7818382;32;38261;-78
2023/07/01 11:17:54;;;;;;;13.00;6.22;;;;;;;31.80;31.40;98793.41;7819315;32;37911;-79
2023/07/01 11:22:12;;;;;;;19.30;10.23;;;;;;;31.67;31.83;98783.28;7792014;32;39631;-78
2023/07/01 11:26:34;;;;;;;9.80;5.35;;;;;;;31.29;32.25;98793.00;7791785;32;39967;-79
2023/07/01 11:30:50;;;;;;;14.27;4.57;;;;;;;31.53;32.25;98795.69;7791775;32;38816;-79
2023/07/01 11:35:08;;;;;;;4.82;3.35;;;;;;;31.55;32.11;98793.25;7792506;32;38212;-80
2023/07/01 11:39:25;;;;;;;4.82;3.58;;;;;;;31.55;31.92;98779.16;7791843;32;39297;-79
2023/07/01 11:43:42;;;;;;;8.20;3.95;;;;;;;31.52;32.39;98775.19;7792181;32;39952;-78
2023/07/01 11:47:58;;;;;;;8.07;3.67;;;;;;;31.49;34.16;98767.59;7791742;32;37854;-79
2023/07/01 11:52:23;;;;;;;7.32;3.90;;;;;;;31.46;34.79;98771.31;7798093;32;37155;-78
2023/07/01 11:56:40;;;;;;;9.25;4.35;;;;;;;31.39;33.63;98774.25;7806836;32;40019;-78
2023/07/01 12:00:57;;;;;;;6.10;3.92;;;;;;;31.38;34.09;98770.66;7793572;32;40127;-78
2023/07/01 12:05:20;;;;;;;7.55;4.12;;;;;;;30.90;36.78;98774.94;7790061;32;37947;-79
2023/07/01 12:09:38;;;;;;;7.85;4.07;;;;;;;30.67;35.62;98765.34;7790279;32;37136;-81
2023/07/01 12:13:54;;;;;;;7.22;4.45;;;;;;;29.83;38.08;98775.72;7802834;32;40018;-81
2023/07/01 12:18:26;;;;;;;9.13;4.85;;;;;;;29.46;40.00;98780.31;7818302;32;40034;-77
2023/07/01 12:22:43;;;;;;;14.95;5.65;;;;;;;27.85;45.43;98820.13;7798012;32;38739;-78
2023/07/01 12:27:02;;;;;;;19.52;7.70;;;;;;;26.35;47.93;98802.06;7797644;32;36840;-77
2023/07/01 12:31:20;;;;;;;15.70;8.55;;;;;;;26.15;55.02;98788.53;7790747;32;38917;-78
2023/07/01 12:35:38;;;;;;;14.85;6.57;;;;;;;25.81;55.42;98777.78;7802803;32;39869;-77
2023/07/01 12:39:59;;;;;;;9.18;6.05;;;;;;;25.77;56.01;98756.66;7808681;32;38080;-78
2023/07/01 12:44:15;;;;;;;11.00;7.10;;;;;;;25.92;56.19;98754.62;7810207;32;37768;-80
2023/07/01 12:48:32;;;;;;;11.10;7.40;;;;;;;25.38;57.82;98763.00;7809530;32;39476;-75
2023/07/01 12:52:52;;;;;;;12.63;7.37;;;;;;;25.49;59.63;98769.38;7798747;32;39947;-76
2023/07/01 12:57:08;;;;;;;13.62;7.20;;;;;;;25.60;59.88;98775.78;7797952;32;37811;-75
2023/07/01 13:01:24;;;;;;;13.05;7.90;;;;;;;25.65;59.61;98782.97;7796095;32;37307;-74
2023/07/01 13:05:41;;;;;;;10.77;7.45;;;;;;;25.48;58.35;98806.88;7802148;32;39083;-69
2023/07/01 13:09:58;;;;;;;11.48;7.68;;;;;;;25.07;57.22;98782.84;7789829;32;39747;-69
2023/07/01 13:14:15;;;;;;;11.93;7.82;;;;;;;25.15;59.34;98760.53;7797550;32;38705;-70
2023/07/01 13:18:31;;;;;;;14.25;8.30;;;;;;;25.08;60.27;98759.34;7805438;32;37666;-69
2023/07/01 13:22:55;;;;;;;10.88;7.45;;;;;;;25.21;60.00;98758.97;7806108;32;39755;-69
2023/07/01 13:27:24;;;;;;;10.70;6.50;;;;;;;25.05;58.52;98750.97;7806663;32;39979;-67
2023/07/01 13:31:47;;;;;;;9.70;7.28;;;;;;;25.31;58.01;98758.22;7807901;32;37973;-69
2023/07/01 13:36:05;;;;;;;12.68;6.97;;;;;;;25.18;59.41;98765.31;7803406;31;37098;-69
2023/07/01 13:40:23;;;;;;;9.50;7.43;;;;;;;25.25;59.31;98777.34;7804308;32;41505;-68
2023/07/01 13:44:40;;;;;;;9.18;7.12;;;;;;;25.18;59.31;98771.72;7792090;32;39964;-69
2023/07/01 13:48:57;;;;;;;9.23;7.05;;;;;;;25.26;58.78;98773.34;7802717;32;37935;-69
2023/07/01 13:53:13;;;;;;;11.25;7.50;;;;;;;24.76;59.40;98784.31;7802132;32;36722;-70
2023/07/01 13:57:29;;;;;;;11.68;7.55;;;;;;;24.95;59.36;98774.84;7804026;31;39007;-69
2023/07/01 14:01:59;;;;;;;11.52;7.22;;;;;;;25.16;60.48;98751.78;7802589;32;40017;-69
2023/07/01 14:06:17;;;;;;;12.43;7.47;;;;;;;25.32;59.74;98761.78;7811772;32;38743;-69
2023/07/01 14:10:37;;;;;;;12.63;7.90;;;;;;;25.27;60.31;98774.16;7797585;32;36815;-70
2023/07/01 14:14:54;;;;;;;12.15;7.60;;;;;;;25.52;60.43;98759.44;7815788;32;39359;-69
2023/07/01 14:19:11;;;;;;;10.85;7.07;;;;;;;25.50;60.55;98751.47;7820225;32;40715;-69
2023/07/01 14:23:32;;;;;;;10.23;7.18;;;;;;;25.41;57.95;98737.91;7820068;32;37943;-69
2023/07/01 14:27:48;;;;;;;11.35;7.40;;;;;;;25.85;59.52;98742.28;7808800;32;37364;-70
2023/07/01 14:32:07;;;;;;;13.18;7.28;;;;;;;26.38;60.31;98737.00;7819615;32;39377;-80
2023/07/01 14:36:30;;;;;;;9.43;6.75;;;;;;;26.99;58.63;98717.19;7810241;32;39896;-79
2023/07/01 14:40:47;;;;;;;14.15;9.80;;;;;;;27.67;53.40;98707.53;7819917;32;37844;-79
2023/07/01 14:45:05;;;;;;;8.68;5.10;;;;;;;28.29;51.50;98705.72;7819945;32;37659;-79
2023/07/01 14:49:21;;;;;;;11.30;6.00;;;;;;;28.24;47.32;98703.38;7817540;32;38996;-70
2023/07/01 14:53:37;;;;;;;9.60;5.20;;;;;;;28.47;49.47;98692.25;7792428;32;40843;-69
2023/07/01 14:57:54;;;;;;;8.88;5.57;;;;;;;28.67;50.05;98691.66;7792101;32;38119;-69
2023/07/01 15:02:10;;;;;;;13.20;5.68;;;;;;;28.61;47.93;98701.72;7793805;32;37836;-68
2023/07/01 15:06:26;;;;;;;8.75;5.50;;;;;;;28.12;48.69;98699.09;7799040;32;39325;-69
2023/07/01 15:10:43;;;;;;;9.23;6.18;;;;;;;27.59;46.72;98714.38;7792062;32;40887;-69
2023/07/01 15:14:59;;;;;;;8.60;6.25;;;;;;;27.73;48.52;98698.25;7805604;32;38502;-70
2023/07/01 15:19:16;;;;;;;10.80;7.28;;;;;;;28.10;47.55;98685.50;7803563;32;37083;-75
2023/07/01 15:23:32;;;;;;;9.23;5.72;;;;;;;27.89;48.84;98674.50;7796927;32;39348;-71
2023/07/01 15:27:48;;;;;;;9.98;5.45;;;;;;;28.14;48.30;98665.06;7807796;32;39872;-69
2023/07/01 15:32:06;;;;;;;6.95;5.30;;;;;;;27.91;46.47;98658.09;7791909;32;39474;-69
2023/07/01 15:36:22;;;;;;;8.82;5.43;;;;;;;28.09;49.99;98667.09;7809258;31;37078;-74
2023/07/01 15:40:40;;;;;;;8.32;5.93;;;;;;;28.16;47.11;98665.44;7797106;32;40080;-72
2023/07/01 15:44:56;;;;;;;10.23;6.03;;;;;;;27.75;48.95;98666.25;7806429;32;40180;-72
2023/07/01 15:49:13;;;;;;;19.12;7.18;;;;;;;26.83;50.70;98692.50;7818789;32;37781;-74
2023/07/01 15:53:29;;;;;;;9.52;6.40;;;;;;;27.24;52.98;98685.47;7818982;32;36992;-71
2023/07/01 15:57:46;;;;;;;10.93;6.57;;;;;;;27.40;54.05;98690.56;7793226;32;39354;-69
2023/07/01 16:02:05;;;;;;;10.52;6.25;;;;;;;27.32;55.09;98696.22;7815773;32;39872;-70
2023/07/01 16:06:22;;;;;;;11.45;5.97;;;;;;;27.34;55.64;98710.59;7810581;32;38113;-69
2023/07/01 16:10:38;;;;;;;11.98;6.50;;;;;;;27.25;54.49;98723.41;7802088;32;37114;-72
2023/07/01 16:15:13;;;;;;;9.60;6.20;;;;;;;27.11;54.11;98724.28;7804973;31;40192;-68
2023/07/01 16:19:35;;;;;;;13.80;6.20;;;;;;;27.01;53.94;98725.16;7800573;32;40007;-68
2023/07/01 16:23:59;;;;;;;9.63;6.15;;;;;;;26.79;53.80;98720.50;7802142;32;37662;-69
2023/07/01 16:28:29;;;;;;;12.10;6.07;;;;;;;26.89;54.17;98713.25;7804059;32;37252;-68
2023/07/01 16:32:47;;;;;;;8.52;5.62;;;;;;;26.82;54.43;98706.91;7804239;32;39914;-69
2023/07/01 16:37:04;;;;;;;10.27;5.82;;;;;;;26.69;54.84;98709.38;7800867;31;39999;-69
2023/07/01 16:41:25;;;;;;;8.45;5.85;;;;;;;26.73;54.58;98707.34;7795856;32;37926;-68
2023/07/01 16:45:43;;;;;;;9.82;5.93;;;;;;;26.52;54.83;98709.00;7798141;32;37045;-68
2023/07/01 16:49:59;;;;;;;10.55;6.18;;;;;;;26.41;54.51;98719.44;7798773;32;39396;-69
2023/07/01 16:54:30;;;;;;;10.25;5.62;;;;;;;26.49;54.64;98711.81;7788520;32;39706;-70
2023/07/01 16:58:48;;;;;;;8.57;5.40;;;;;;;26.38;55.02;98711.88;7808987;32;38803;-72
2023/07/01 17:03:11;;;;;;;11.10;6.03;;;;;;;26.27;55.94;98705.50;7810026;32;37197;-81
2023/07/01 17:07:29;;;;;;;11.77;6.10;;;;;;;26.22;55.08;98710.31;7820010;32;40231;-81
2023/07/01 17:11:47;;;;;;;10.27;5.75;;;;;;;26.10;55.81;98715.56;7820243;32;39653;-81
2023/07/01 17:16:05;;;;;;;9.43;5.90;;;;;;;26.00;57.15;98711.59;7820740;32;38487;-81
2023/07/01 17:20:21;;;;;;;13.05;5.72;;;;;;;25.98;57.28;98711.97;7821085;32;37026;-82
2023/07/01 17:24:38;;;;;;;11.27;5.65;;;;;;;25.71;56.72;98714.38;7819666;32;39319;-82
2023/07/01 17:28:54;;;;;;;8.38;5.10;;;;;;;25.78;56.33;98724.75;7813395;32;39837;-83
2023/07/01 17:33:13;;;;;;;9.88;5.28;;;;;;;25.61;55.91;98729.94;7793338;32;37981;-84
2023/07/01 17:37:30;;;;;;;8.82;5.85;;;;;;;25.59;55.82;98728.75;7811479;32;37103;-79
2023/07/01 17:41:47;;;;;;;6.97;5.05;;;;;;;25.41;55.96;98726.75;7811461;32;40074;-80
2023/07/01 17:46:04;;;;;;;7.03;4.82;;;;;;;25.24;57.01;98731.09;7816792;31;39941;-79
2023/07/01 17:50:21;;;;;;;6.62;4.90;;;;;;;25.16;57.40;98734.25;7808288;32;37937;-78
2023/07/01 17:54:37;;;;;;;11.15;5.18;;;;;;;25.12;56.50;98734.25;7801548;32;36492;-78
2023/07/01 17:58:53;;;;;;;6.80;4.82;;;;;;;25.08;56.64;98736.25;7809183;32;40140;-78
2023/07/01 18:03:10;;;;;;;12.45;5.55;;;;;;;24.96;57.26;98731.84;7803079;32;39949;-78
2023/07/01 18:07:28;;;;;;;9.65;4.72;;;;;;;24.99;57.06;98741.38;7809056;31;38728;-78
2023/07/01 18:11:44;;;;;;;6.85;4.37;;;;;;;24.88;57.14;98735.78;7821617;31;37033;-78
2023/07/01 18:16:01;;;;;;;6.95;4.20;;;;;;;24.96;56.96;98731.84;7821595;31;38193;-79
2023/07/01 18:20:20;;;;;;;6.78;4.18;;;;;;;24.91;56.21;98737.78;7820295;31;39680;-78
2023/07/01 18:24:38;;;;;;;8.45;4.82;;;;;;;24.74;56.61;98739.34;7819694;31;37981;-79
2023/07/01 18:28:56;;;;;;;6.35;4.43;;;;;;;24.76;56.70;98736.16;7816351;31;37875;-78
2023/07/01 18:33:13;;;;;;;6.57;4.30;;;;;;;24.62;57.30;98746.06;7816687;31;39506;-79
2023/07/01 18:37:29;;;;;;;11.27;4.60;;;;;;;24.57;57.53;98737.28;7818677;31;39876;-77
2023/07/01 18:41:46;;;;;;;5.75;4.00;;;;;;;24.49;57.90;98740.00;7819923;31;38024;-79
2023/07/01 18:46:02;;;;;;;8.65;4.30;;;;;;;24.37;57.85;98743.94;7807344;32;37355;-78
2023/07/01 18:50:19;;;;;;;7.07;3.92;;;;;;;24.36;57.18;98749.88;7817617;32;39938;-77
2023/07/01 18:54:36;;;;;;;9.85;4.10;;;;;;;24.35;56.15;98757.44;7807153;31;39586;-78
2023/07/01 18:58:52;;;;;;;5.28;3.55;;;;;;;24.16;56.94;98760.50;7820735;31;38637;-77
2023/07/01 19:03:12;;;;;;;9.30;4.22;;;;;;;24.24;56.69;98770.50;7832018;31;36542;-79
2023/07/01 19:07:31;;;;;;;9.77;5.22;;;;;;;24.08;56.46;98783.94;7832368;31;39353;-78
2023/07/01 19:11:47;;;;;;;9.35;5.05;;;;;;;23.98;57.90;98786.25;7831494;31;39617;-78
2023/07/01 19:16:05;;;;;;;7.93;4.37;;;;;;;24.10;56.96;98793.50;7832433;31;38748;-78
2023/07/01 19:20:42;;;;;;;13.90;4.80;;;;;;;24.11;57.03;98805.41;7830071;31;37154;-79
2023/07/01 19:24:59;;;;;;;9.40;5.43;;;;;;;24.12;57.66;98801.44;7827508;31;38577;-78
2023/07/01 19:29:36;;;;;;;6.97;4.70;;;;;;;24.06;58.00;98803.00;7831777;31;39769;-78
2023/07/01 19:33:57;;;;;;;9.65;5.35;;;;;;;23.92;58.75;98804.50;7826023;31;37572;-78
2023/07/01 19:38:32;;;;;;;9.20;4.90;;;;;;;23.84;59.08;98807.62;7825177;31;37270;-78
2023/07/01 19:42:50;;;;;;;9.50;5.28;;;;;;;23.85;58.20;98814.75;7821080;31;40542;-79
2023/07/01 19:47:10;;;;;;;7.53;4.57;;;;;;;23.90;57.46;98812.41;7826190;31;40572;-77
2023/07/01 19:51:27;;;;;;;9.02;4.72;;;;;;;23.94;57.87;98816.03;7829639;31;38638;-83
2023/07/01 19:55:46;;;;;;;7.15;4.80;;;;;;;23.88;57.80;98823.12;7828414;31;37056;-77
2023/07/01 20:00:06;;;;;;;9.20;4.70;;;;;;;23.85;57.53;98826.69;7825051;31;40039;-77
2023/07/01 20:04:23;;;;;;;8.48;4.68;;;;;;;23.87;56.79;98840.22;7827519;31;39435;-78
2023/07/01 20:08:43;;;;;;;9.13;4.68;;;;;;;23.73;57.86;98835.28;7827774;31;37931;-78
2023/07/01 20:13:04;;;;;;;7.12;4.97;;;;;;;23.77;57.26;98830.59;7818746;31;38018;-78